createdAt,value
2019-03-30T00:00:37.479Z,102144.53
2019-03-30T00:03:05.990Z,102138.06
2019-03-30T00:05:34.484Z,102134.63
2019-03-30T00:08:03.041Z,102126.48
2019-03-30T00:10:31.512Z,102127.23
2019-03-30T00:12:59.997Z,102127.03
2019-03-30T00:15:28.507Z,102122.32
2019-03-30T00:17:56.953Z,102114.83
2019-03-30T00:20:25.417Z,102120.45
2019-03-30T00:22:53.872Z,102107.98
2019-03-30T00:25:22.350Z,102116.53
2019-03-30T00:27:50.830Z,102110.91
2019-03-30T00:30:19.474Z,102112.69
2019-03-30T00:32:48.077Z,102113.22
2019-03-30T00:35:16.608Z,102104.25
2019-03-30T00:37:45.049Z,102100.61
2019-03-30T00:40:13.610Z,102099.00
2019-03-30T00:42:42.190Z,102099.53
2019-03-30T00:45:10.819Z,102097.66
2019-03-30T00:47:39.267Z,102096.95
2019-03-30T00:50:08.298Z,102087.04
2019-03-30T00:52:36.767Z,102091.30
2019-03-30T00:55:06.750Z,102091.83
2019-03-30T00:57:35.203Z,102094.16
2019-03-30T01:00:04.834Z,102096.11
2019-03-30T01:02:33.274Z,102088.81
2019-03-30T01:05:01.799Z,102089.66
2019-03-30T01:07:30.364Z,102089.58
2019-03-30T01:09:58.863Z,102087.27
2019-03-30T01:12:27.315Z,102085.00
2019-03-30T01:14:55.812Z,102085.44
2019-03-30T01:17:24.303Z,102086.67
2019-03-30T01:20:02.666Z,102087.08
2019-03-30T01:22:22.929Z,102077.30
2019-03-30T01:24:51.407Z,102075.62
2019-03-30T01:27:19.876Z,102083.64
2019-03-30T01:29:48.347Z,102075.00
2019-03-30T01:32:16.901Z,102069.81
2019-03-30T01:34:45.370Z,102069.70
2019-03-30T01:37:13.843Z,102071.05
2019-03-30T01:39:42.319Z,102070.27
2019-03-30T01:42:10.782Z,102071.81
2019-03-30T01:44:39.250Z,102071.50
2019-03-30T01:47:07.726Z,102063.88
2019-03-30T01:49:36.209Z,102068.27
2019-03-30T01:52:05.340Z,102065.96
2019-03-30T01:54:33.866Z,102061.61
2019-03-30T01:57:02.328Z,102063.17
2019-03-30T01:59:30.813Z,102057.43
2019-03-30T02:01:59.258Z,102059.30
2019-03-30T02:04:27.784Z,102056.08
2019-03-30T02:06:56.435Z,102055.47
2019-03-30T02:09:24.906Z,102055.88
2019-03-30T02:11:53.371Z,102054.20
2019-03-30T02:14:21.935Z,102059.42
2019-03-30T02:16:50.380Z,102057.15
2019-03-30T02:19:18.906Z,102051.21
2019-03-30T02:21:47.352Z,102048.18
2019-03-30T02:24:15.837Z,102042.84
2019-03-30T02:26:44.307Z,102050.57
2019-03-30T02:29:12.788Z,102049.09
2019-03-30T02:31:41.295Z,102045.98
2019-03-30T02:34:09.769Z,102045.36
2019-03-30T02:36:38.244Z,102044.52
2019-03-30T02:39:06.785Z,102044.31
2019-03-30T02:41:35.249Z,102042.36
2019-03-30T02:44:03.907Z,102040.89
2019-03-30T02:46:32.370Z,102041.32
2019-03-30T02:49:00.867Z,102037.66
2019-03-30T02:51:29.322Z,102040.60
2019-03-30T02:53:57.902Z,102037.14
2019-03-30T02:56:26.329Z,102032.23
2019-03-30T02:58:54.799Z,102036.85
2019-03-30T03:01:23.263Z,102037.05
2019-03-30T03:03:51.758Z,102040.59
2019-03-30T03:06:20.221Z,102031.44
2019-03-30T03:08:48.745Z,102025.27
2019-03-30T03:11:17.196Z,102025.89
2019-03-30T03:13:45.707Z,102024.55
2019-03-30T03:16:14.164Z,102015.17
2019-03-30T03:18:42.803Z,102012.55
2019-03-30T03:21:11.260Z,102005.17
2019-03-30T03:23:39.741Z,102008.11
2019-03-30T03:26:08.181Z,102001.62
2019-03-30T03:28:36.668Z,102006.84
2019-03-30T03:31:05.157Z,102003.93
2019-03-30T03:33:33.705Z,102003.94
2019-03-30T03:36:02.216Z,102004.33
2019-03-30T03:38:30.708Z,102002.89
2019-03-30T03:40:59.150Z,101995.48
2019-03-30T03:43:27.665Z,101997.16
2019-03-30T03:45:56.132Z,101993.94
2019-03-30T03:48:24.611Z,101998.11
2019-03-30T03:50:55.990Z,101996.34
2019-03-30T03:53:24.542Z,101988.30
2019-03-30T03:55:53.982Z,101989.03
2019-03-30T03:58:25.611Z,101993.00
2019-03-30T04:00:55.649Z,101993.33
2019-03-30T04:03:24.686Z,101984.13
2019-03-30T04:05:56.339Z,101981.73
2019-03-30T04:08:26.350Z,101977.78
2019-03-30T04:10:55.485Z,101974.76
2019-03-30T04:13:27.141Z,101978.42
2019-03-30T04:15:55.691Z,101972.37
2019-03-30T04:18:24.175Z,101975.50
2019-03-30T04:20:52.988Z,101981.95
2019-03-30T04:23:21.477Z,101982.70
2019-03-30T04:25:49.918Z,101981.63
2019-03-30T04:28:18.412Z,101981.02
2019-03-30T04:30:46.882Z,101979.66
2019-03-30T04:33:15.373Z,101979.05
2019-03-30T04:35:43.839Z,101977.67
2019-03-30T04:38:14.408Z,101970.09
2019-03-30T04:40:42.473Z,101971.56
2019-03-30T04:43:10.965Z,101968.10
2019-03-30T04:45:39.448Z,101965.39
2019-03-30T04:48:07.992Z,101969.14
2019-03-30T04:50:36.449Z,101966.13
2019-03-30T04:53:05.064Z,101966.45
2019-03-30T04:55:33.536Z,101966.55
2019-03-30T04:58:02.014Z,101963.54
2019-03-30T05:00:30.494Z,101960.19
2019-03-30T05:02:58.988Z,101958.53
2019-03-30T05:05:27.548Z,101953.95
2019-03-30T05:07:56.082Z,101956.86
2019-03-30T05:10:24.515Z,101948.55
2019-03-30T05:12:53.011Z,101944.38
2019-03-30T05:15:21.465Z,101942.50
2019-03-30T05:17:49.960Z,101939.47
2019-03-30T05:20:18.452Z,101948.74
2019-03-30T05:22:47.026Z,101947.48
2019-03-30T05:25:15.469Z,101945.41
2019-03-30T05:27:43.970Z,101945.81
2019-03-30T05:30:12.961Z,101946.05
2019-03-30T05:32:41.997Z,101950.39
2019-03-30T05:35:10.860Z,101951.11
2019-03-30T05:37:39.476Z,101952.98
2019-03-30T05:40:08.756Z,101952.47
2019-03-30T05:42:37.256Z,101951.63
2019-03-30T05:45:07.333Z,101951.39
2019-03-30T05:47:35.853Z,101943.78
2019-03-30T05:50:06.333Z,101947.56
2019-03-30T05:52:35.740Z,101954.11
2019-03-30T05:55:04.640Z,101958.56
2019-03-30T05:57:33.185Z,101953.13
2019-03-30T06:00:01.612Z,101951.85
2019-03-30T06:02:30.117Z,101950.08
2019-03-30T06:04:58.915Z,101951.30
2019-03-30T06:07:27.524Z,101949.03
2019-03-30T06:09:55.996Z,101940.95
2019-03-30T06:12:24.512Z,101946.92
2019-03-30T06:14:53.025Z,101942.41
2019-03-30T06:17:21.478Z,101941.55
2019-03-30T06:19:49.937Z,101941.63
2019-03-30T06:22:18.429Z,101942.16
2019-03-30T06:24:46.892Z,101934.43
2019-03-30T06:27:15.468Z,101936.35
2019-03-30T06:29:43.924Z,101938.72
2019-03-30T06:32:12.512Z,101935.48
2019-03-30T06:34:40.993Z,101927.72
2019-03-30T06:37:09.483Z,101926.41
2019-03-30T06:39:38.059Z,101929.42
2019-03-30T06:42:06.584Z,101924.25
2019-03-30T06:44:35.062Z,101933.50
2019-03-30T06:47:03.605Z,101933.14
2019-03-30T06:49:32.097Z,101928.98
2019-03-30T06:52:00.593Z,101925.50
2019-03-30T06:54:29.126Z,101923.91
2019-03-30T06:56:57.576Z,101923.83
2019-03-30T06:59:26.202Z,101921.81
2019-03-30T07:01:54.653Z,101915.98
2019-03-30T07:04:23.175Z,101918.80
2019-03-30T07:06:52.784Z,101922.13
2019-03-30T07:09:22.803Z,101916.14
2019-03-30T07:11:52.417Z,101917.11
2019-03-30T07:14:22.781Z,101918.20
2019-03-30T07:16:53.319Z,101914.73
2019-03-30T07:19:22.865Z,101913.52
2019-03-30T07:21:51.302Z,101915.63
2019-03-30T07:24:19.788Z,101913.62
2019-03-30T07:26:48.233Z,101910.92
2019-03-30T07:29:16.733Z,101906.73
2019-03-30T07:31:46.599Z,101910.91
2019-03-30T07:34:15.170Z,101911.23
2019-03-30T07:36:43.615Z,101923.77
2019-03-30T07:39:12.095Z,101922.19
2019-03-30T07:41:40.550Z,101915.89
2019-03-30T07:44:09.405Z,101924.14
2019-03-30T07:46:37.886Z,101925.08
2019-03-30T07:49:06.372Z,101915.27
2019-03-30T07:51:34.854Z,101922.05
2019-03-30T07:54:05.938Z,101922.45
2019-03-30T07:56:34.463Z,101925.83
2019-03-30T07:59:03.001Z,101918.41
2019-03-30T08:01:31.444Z,101915.22
2019-03-30T08:04:00.318Z,101918.40
2019-03-30T08:06:28.803Z,101914.55
2019-03-30T08:08:57.287Z,101918.53
2019-03-30T08:11:25.795Z,101914.85
2019-03-30T08:13:54.309Z,101918.97
2019-03-30T08:16:22.775Z,101913.07
2019-03-30T08:18:51.258Z,101916.22
2019-03-30T08:21:19.831Z,101909.20
2019-03-30T08:23:48.345Z,101904.69
2019-03-30T08:26:16.877Z,101898.47
2019-03-30T08:28:45.358Z,101901.51
2019-03-30T08:31:13.844Z,101902.96
2019-03-30T08:33:42.340Z,101898.87
2019-03-30T08:36:10.813Z,101895.05
2019-03-30T08:38:39.287Z,101892.64
2019-03-30T08:41:08.258Z,101890.14
2019-03-30T08:43:36.730Z,101891.53
2019-03-30T08:46:05.273Z,101888.80
2019-03-30T08:48:33.777Z,101885.51
2019-03-30T08:51:02.270Z,101885.52
2019-03-30T08:53:30.787Z,101881.92
2019-03-30T08:55:59.266Z,101890.18
2019-03-30T08:58:27.749Z,101882.45
2019-03-30T09:00:56.230Z,101879.64
2019-03-30T09:03:24.709Z,101880.98
2019-03-30T09:05:53.226Z,101880.66
2019-03-30T09:08:21.695Z,101868.21
2019-03-30T09:10:50.174Z,101867.23
2019-03-30T09:13:18.688Z,101861.21
2019-03-30T09:15:47.160Z,101853.98
2019-03-30T09:18:15.699Z,101858.06
2019-03-30T09:20:44.181Z,101857.14
2019-03-30T09:23:12.697Z,101852.15
2019-03-30T09:25:41.261Z,101857.38
2019-03-30T09:28:09.796Z,101845.81
2019-03-30T09:30:38.283Z,101844.23
2019-03-30T09:33:06.776Z,101843.91
2019-03-30T09:35:35.240Z,101834.18
2019-03-30T09:38:03.743Z,101832.17
2019-03-30T09:40:32.228Z,101829.86
2019-03-30T09:43:00.710Z,101826.23
2019-03-30T09:45:29.273Z,101824.85
2019-03-30T09:47:57.840Z,101826.92
2019-03-30T09:50:26.317Z,101821.55
2019-03-30T09:52:54.825Z,101816.61
2019-03-30T09:55:23.298Z,101821.97
2019-03-30T09:57:51.791Z,101812.16
2019-03-30T10:00:21.835Z,101807.33
2019-03-30T10:02:50.311Z,101806.23
2019-03-30T10:05:18.778Z,101808.42
2019-03-30T10:07:47.309Z,101803.61
2019-03-30T10:10:15.789Z,101807.33
2019-03-30T10:12:44.376Z,101801.94
2019-03-30T10:15:13.876Z,101800.90
2019-03-30T10:17:42.377Z,101798.82
2019-03-30T10:20:10.820Z,101791.64
2019-03-30T10:22:42.008Z,101789.22
2019-03-30T10:25:09.625Z,101792.92
2019-03-30T10:27:38.127Z,101788.06
2019-03-30T10:30:09.126Z,101789.52
2019-03-30T10:32:37.636Z,101787.67
2019-03-30T10:35:06.959Z,101773.64
2019-03-30T10:37:35.450Z,101771.42
2019-03-30T10:40:06.330Z,101770.22
2019-03-30T10:42:35.192Z,101766.55
2019-03-30T10:45:05.780Z,101770.33
2019-03-30T10:47:34.283Z,101764.77
2019-03-30T10:50:03.109Z,101756.16
2019-03-30T10:52:31.594Z,101763.44
2019-03-30T10:55:00.082Z,101754.39
2019-03-30T10:57:28.562Z,101754.20
2019-03-30T10:59:57.026Z,101750.53
2019-03-30T11:02:25.588Z,101753.12
2019-03-30T11:04:54.092Z,101749.28
2019-03-30T11:07:22.582Z,101735.22
2019-03-30T11:09:51.027Z,101740.48
2019-03-30T11:12:19.595Z,101731.63
2019-03-30T11:14:48.042Z,101731.98
2019-03-30T11:17:19.327Z,101723.93
2019-03-30T11:19:46.796Z,101721.56
2019-03-30T11:22:15.289Z,101721.95
2019-03-30T11:24:43.852Z,101723.80
2019-03-30T11:27:12.336Z,101716.33
2019-03-30T11:29:40.792Z,101708.06
2019-03-30T11:32:09.286Z,101712.76
2019-03-30T11:34:37.754Z,101709.59
2019-03-30T11:37:06.382Z,101698.48
2019-03-30T11:39:36.592Z,101693.36
2019-03-30T11:42:05.180Z,101695.93
2019-03-30T11:44:33.638Z,101696.40
2019-03-30T11:47:02.488Z,101687.48
2019-03-30T11:49:30.984Z,101686.04
2019-03-30T11:51:59.451Z,101677.19
2019-03-30T11:54:27.978Z,101674.45
2019-03-30T11:56:56.491Z,101670.72
2019-03-30T11:59:24.937Z,101681.71
2019-03-30T12:01:54.408Z,101677.86
2019-03-30T12:04:22.866Z,101672.54
2019-03-30T12:06:51.955Z,101673.97
2019-03-30T12:09:20.621Z,101674.52
2019-03-30T12:11:49.162Z,101670.86
2019-03-30T12:14:17.604Z,101649.64
2019-03-30T12:16:46.084Z,101658.66
2019-03-30T12:19:14.519Z,101645.45
2019-03-30T12:21:42.999Z,101647.98
2019-03-30T12:24:11.430Z,101639.43
2019-03-30T12:26:39.979Z,101639.06
2019-03-30T12:29:08.411Z,101633.61
2019-03-30T12:31:36.954Z,101631.59
2019-03-30T12:34:05.403Z,101631.02
2019-03-30T12:36:33.883Z,101619.67
2019-03-30T12:39:02.599Z,101629.43
2019-03-30T12:41:31.071Z,101621.36
2019-03-30T12:43:59.511Z,101623.39
2019-03-30T12:46:28.050Z,101633.95
2019-03-30T12:48:56.492Z,101629.81
2019-03-30T12:51:31.439Z,101626.39
2019-03-30T12:53:59.898Z,101624.07
2019-03-30T12:56:28.482Z,101628.52
2019-03-30T12:58:57.019Z,101627.03
2019-03-30T13:01:25.511Z,101614.67
2019-03-30T13:03:54.026Z,101621.65
2019-03-30T13:06:22.541Z,101611.94
2019-03-30T13:08:51.096Z,101621.84
2019-03-30T13:11:20.101Z,101614.48
2019-03-30T13:13:48.634Z,101609.45
2019-03-30T13:16:18.309Z,101604.01
2019-03-30T13:18:46.921Z,101609.70
2019-03-30T13:21:15.375Z,101594.22
2019-03-30T13:23:43.863Z,101598.97
2019-03-30T13:26:12.312Z,101591.54
2019-03-30T13:28:40.797Z,101586.27
2019-03-30T13:31:09.243Z,101582.58
2019-03-30T13:33:37.807Z,101586.28
2019-03-30T13:36:10.482Z,101585.75
2019-03-30T13:38:37.828Z,101572.34
2019-03-30T13:41:06.267Z,101562.44
2019-03-30T13:43:34.806Z,101571.11
2019-03-30T13:46:03.294Z,101563.08
2019-03-30T13:48:31.779Z,101551.45
2019-03-30T13:51:00.221Z,101555.72
2019-03-30T13:53:28.712Z,101552.45
2019-03-30T13:55:57.162Z,101547.83
2019-03-30T13:58:25.631Z,101538.48
2019-03-30T14:00:54.101Z,101542.62
2019-03-30T14:03:22.590Z,101538.96
2019-03-30T14:05:51.039Z,101525.23
2019-03-30T14:08:19.546Z,101534.34
2019-03-30T14:10:47.994Z,101525.64
2019-03-30T14:13:16.503Z,101527.87
2019-03-30T14:15:44.950Z,101515.49
2019-03-30T14:18:13.451Z,101492.51
2019-03-30T14:20:41.900Z,101481.58
2019-03-30T14:23:10.388Z,101488.51
2019-03-30T14:25:38.895Z,101470.81
2019-03-30T14:28:07.582Z,101471.84
2019-03-30T14:30:36.121Z,101464.16
2019-03-30T14:33:04.641Z,101462.48
2019-03-30T14:35:33.145Z,101453.93
2019-03-30T14:38:01.662Z,101449.77
2019-03-30T14:40:30.120Z,101452.78
2019-03-30T14:42:58.800Z,101450.57
2019-03-30T14:45:27.245Z,101443.77
2019-03-30T14:47:57.863Z,101445.08
2019-03-30T14:50:25.873Z,101441.26
2019-03-30T14:52:54.405Z,101438.97
2019-03-30T14:55:22.868Z,101428.48
2019-03-30T14:57:51.395Z,101421.59
2019-03-30T15:00:20.046Z,101419.83
2019-03-30T15:02:48.839Z,101416.17
2019-03-30T15:05:17.383Z,101412.72
2019-03-30T15:07:45.876Z,101408.14
2019-03-30T15:10:14.353Z,101406.37
2019-03-30T15:12:42.850Z,101402.09
2019-03-30T15:15:12.145Z,101401.70
2019-03-30T15:17:41.352Z,101396.34
2019-03-30T15:20:11.143Z,101393.80
2019-03-30T15:22:39.621Z,101397.45
2019-03-30T15:25:09.985Z,101393.16
2019-03-30T15:27:38.580Z,101389.56
2019-03-30T15:30:10.075Z,101381.47
2019-03-30T15:32:38.572Z,101382.98
2019-03-30T15:35:07.998Z,101389.09
2019-03-30T15:37:36.483Z,101379.00
2019-03-30T15:40:06.564Z,101380.64
2019-03-30T15:42:35.128Z,101381.89
2019-03-30T15:45:05.409Z,101380.93
2019-03-30T15:47:33.918Z,101371.89
2019-03-30T15:50:02.524Z,101374.34
2019-03-30T15:52:31.033Z,101364.63
2019-03-30T15:54:59.504Z,101363.41
2019-03-30T15:57:28.013Z,101356.78
2019-03-30T15:59:56.542Z,101355.39
2019-03-30T16:02:25.062Z,101353.69
2019-03-30T16:04:53.521Z,101359.88
2019-03-30T16:07:22.083Z,101358.86
2019-03-30T16:09:50.600Z,101349.63
2019-03-30T16:12:19.206Z,101351.20
2019-03-30T16:14:47.672Z,101352.52
2019-03-30T16:17:16.161Z,101350.89
2019-03-30T16:19:44.643Z,101344.99
2019-03-30T16:22:13.315Z,101347.69
2019-03-30T16:24:41.796Z,101347.45
2019-03-30T16:27:10.278Z,101350.80
2019-03-30T16:29:38.748Z,101345.41
2019-03-30T16:32:07.235Z,101348.75
2019-03-30T16:34:35.763Z,101346.30
2019-03-30T16:37:04.237Z,101347.88
2019-03-30T16:39:34.822Z,101350.08
2019-03-30T16:42:02.970Z,101346.30
2019-03-30T16:44:31.413Z,101346.27
2019-03-30T16:46:59.911Z,101341.95
2019-03-30T16:49:28.457Z,101338.31
2019-03-30T16:51:57.613Z,101331.17
2019-03-30T16:54:26.088Z,101333.66
2019-03-30T16:56:54.575Z,101328.02
2019-03-30T16:59:23.053Z,101333.46
2019-03-30T17:01:51.565Z,101334.79
2019-03-30T17:04:20.039Z,101330.58
2019-03-30T17:06:48.515Z,101332.98
2019-03-30T17:09:17.005Z,101339.98
2019-03-30T17:11:45.480Z,101331.98
2019-03-30T17:14:13.958Z,101327.09
2019-03-30T17:16:42.434Z,101331.12
2019-03-30T17:19:12.482Z,101321.81
2019-03-30T17:21:40.949Z,101323.58
2019-03-30T17:24:09.427Z,101316.91
2019-03-30T17:26:38.012Z,101321.80
2019-03-30T17:29:06.506Z,101324.27
2019-03-30T17:31:35.053Z,101317.80
2019-03-30T17:34:03.530Z,101326.28
2019-03-30T17:36:32.013Z,101325.79
2019-03-30T17:39:00.494Z,101330.61
2019-03-30T17:41:28.972Z,101327.12
2019-03-30T17:43:57.443Z,101328.45
2019-03-30T17:46:26.037Z,101328.34
2019-03-30T17:48:54.576Z,101330.55
2019-03-30T17:51:23.099Z,101325.77
2019-03-30T17:53:52.343Z,101330.02
2019-03-30T17:56:21.035Z,101330.33
2019-03-30T17:58:49.621Z,101334.21
2019-03-30T18:01:18.209Z,101326.84
2019-03-30T18:03:46.680Z,101326.57
2019-03-30T18:06:15.209Z,101331.45
2019-03-30T18:08:43.708Z,101325.22
2019-03-30T18:11:12.190Z,101327.05
2019-03-30T18:13:40.747Z,101319.48
2019-03-30T18:16:09.542Z,101323.78
2019-03-30T18:18:38.027Z,101324.50
2019-03-30T18:21:06.532Z,101324.55
2019-03-30T18:23:35.031Z,101323.95
2019-03-30T18:26:03.508Z,101322.95
2019-03-30T18:28:31.982Z,101325.16
2019-03-30T18:31:00.575Z,101328.05
2019-03-30T18:33:29.319Z,101333.09
2019-03-30T18:35:57.973Z,101320.45
2019-03-30T18:38:26.610Z,101331.98
2019-03-30T18:40:55.172Z,101333.53
2019-03-30T18:43:23.645Z,101331.38
2019-03-30T18:45:52.176Z,101330.31
2019-03-30T18:48:20.637Z,101328.84
2019-03-30T18:50:49.570Z,101332.34
2019-03-30T18:53:18.282Z,101331.88
2019-03-30T18:55:46.767Z,101326.39
2019-03-30T18:58:15.221Z,101331.09
2019-03-30T19:00:43.735Z,101334.77
2019-03-30T19:03:12.203Z,101336.71
2019-03-30T19:05:41.316Z,101327.19
2019-03-30T19:08:09.759Z,101329.34
2019-03-30T19:10:38.384Z,101328.84
2019-03-30T19:13:06.890Z,101327.70
2019-03-30T19:15:35.397Z,101332.37
2019-03-30T19:18:03.928Z,101329.94
2019-03-30T19:20:32.434Z,101321.69
2019-03-30T19:23:00.902Z,101327.20
2019-03-30T19:25:29.840Z,101329.75
2019-03-30T19:27:58.605Z,101328.14
2019-03-30T19:30:27.241Z,101328.41
2019-03-30T19:32:55.692Z,101324.59
2019-03-30T19:35:24.287Z,101322.66
2019-03-30T19:37:52.782Z,101325.41
2019-03-30T19:40:21.467Z,101321.81
2019-03-30T19:42:49.923Z,101324.02
2019-03-30T19:45:18.414Z,101321.82
2019-03-30T19:47:46.881Z,101324.28
2019-03-30T19:50:15.431Z,101317.98
2019-03-30T19:52:43.913Z,101317.42
2019-03-30T19:55:14.109Z,101321.00
2019-03-30T19:57:42.571Z,101322.38
2019-03-30T20:00:12.763Z,101329.73
2019-03-30T20:02:41.224Z,101322.31
2019-03-30T20:05:09.786Z,101316.58
2019-03-30T20:07:38.281Z,101308.39
2019-03-30T20:10:07.024Z,101311.97
2019-03-30T20:12:35.723Z,101305.39
2019-03-30T20:15:05.482Z,101305.40
2019-03-30T20:17:33.933Z,101306.49
2019-03-30T20:20:02.424Z,101301.26
2019-03-30T20:22:30.898Z,101299.84
2019-03-30T20:24:59.426Z,101303.45
2019-03-30T20:27:28.005Z,101304.01
2019-03-30T20:29:56.580Z,101300.69
2019-03-30T20:32:25.041Z,101298.80
2019-03-30T20:34:53.576Z,101298.53
2019-03-30T20:37:22.014Z,101299.07
2019-03-30T21:27:13.699Z,101032.03
2019-03-30T21:29:54.079Z,101010.17
2019-03-30T21:32:13.314Z,101270.98
2019-03-30T21:34:42.689Z,101268.78
2019-03-30T21:37:12.123Z,101272.89
2019-03-30T21:39:41.554Z,101277.58
2019-03-30T21:42:10.961Z,101271.00
2019-03-30T21:44:39.518Z,101271.54
2019-03-30T21:47:07.987Z,101266.03
2019-03-30T21:49:36.446Z,101267.30
2019-03-30T21:52:04.978Z,101271.79
2019-03-30T21:54:33.438Z,101274.34
2019-03-30T21:57:01.966Z,101269.44
2019-03-30T21:59:30.423Z,101277.84
2019-03-30T22:01:58.936Z,101273.17
2019-03-30T22:04:27.373Z,101275.73
2019-03-30T22:06:55.976Z,101271.63
2019-03-30T22:09:24.411Z,101273.84
2019-03-30T22:11:52.910Z,101275.73
2019-03-30T22:14:21.380Z,101271.14
2019-03-30T22:16:49.866Z,101274.34
2019-03-30T22:19:18.344Z,101278.72
2019-03-30T22:21:46.897Z,101273.25
2019-03-30T22:24:15.643Z,101268.31
2019-03-30T22:26:44.136Z,101271.91
2019-03-30T22:29:12.671Z,101274.60
2019-03-30T22:31:41.233Z,101273.09
2019-03-30T22:34:09.680Z,101275.28
2019-03-30T22:36:38.186Z,101266.30
2019-03-30T22:39:07.033Z,101269.28
2019-03-30T22:41:35.531Z,101271.80
2019-03-30T22:44:04.266Z,101270.11
2019-03-30T22:46:32.756Z,101278.70
2019-03-30T22:49:01.277Z,101268.16
2019-03-30T22:51:29.766Z,101269.78
2019-03-30T22:53:58.221Z,101263.28
2019-03-30T22:56:26.713Z,101269.98
2019-03-30T22:58:55.252Z,101265.94
2019-03-30T23:01:24.582Z,101259.32
2019-03-30T23:03:53.033Z,101259.97
2019-03-30T23:06:21.582Z,101260.02
2019-03-30T23:08:50.081Z,101259.31
2019-03-30T23:11:18.563Z,101260.72
2019-03-30T23:13:47.085Z,101253.11
2019-03-30T23:16:15.656Z,101251.75
2019-03-30T23:18:45.497Z,101255.16
2019-03-30T23:21:14.113Z,101259.92
2019-03-30T23:23:42.554Z,101257.20
2019-03-30T23:26:11.439Z,101258.23
2019-03-30T23:28:40.185Z,101256.09
2019-03-30T23:31:08.665Z,101250.00
2019-03-30T23:33:37.139Z,101256.52
2019-03-30T23:36:05.638Z,101254.85
2019-03-30T23:38:34.138Z,101256.41
2019-03-30T23:41:02.668Z,101253.39
2019-03-30T23:43:31.125Z,101253.29
2019-03-30T23:45:59.595Z,101254.87
2019-03-30T23:48:28.056Z,101253.91
2019-03-30T23:50:56.525Z,101253.29
2019-03-30T23:53:25.008Z,101254.88
2019-03-30T23:55:53.540Z,101252.64
2019-03-30T23:58:22.001Z,101251.09
